Date,TemperatureHighF,TemperatureAvgF,TemperatureLowF,DewpointHighF,DewpointAvgF,DewpointLowF,HumidityHigh,HumidityAvg,HumidityLow,PressureMaxIn,PressureMinIn,WindSpeedMaxMPH,WindSpeedAvgMPH,GustSpeedMaxMPH,PrecipitationSumIn
2013-2-1,70,48,32,-100,-100,-100,0,0,100,0.00,40.00,0,-999,0,0.00
2013-2-2,67,50,37,-100,-100,-100,0,0,100,0.00,40.00,0,-999,0,0.00
2013-2-3,62,45,34,-100,-100,-100,0,0,100,0.00,40.00,0,-999,0,0.00
2013-2-4,63,48,35,-100,-100,-100,0,0,100,0.00,40.00,0,-999,0,0.00
2013-2-5,56,44,36,-100,-100,-100,0,0,100,0.00,40.00,0,-999,0,0.00
2013-2-6,61,45,34,-100,-100,-100,0,0,100,0.00,40.00,0,-999,0,0.00
2013-2-7,57,45,35,-100,-100,-100,0,0,100,0.00,40.00,0,-999,0,0.00
2013-2-8,55,43,31,-100,-100,-100,0,0,100,0.00,40.00,0,-999,0,0.00
2013-2-9,57,42,27,-100,-100,-100,0,0,100,0.00,40.00,0,-999,0,0.00
2013-2-10,59,42,30,-100,-100,-100,0,0,100,0.00,40.00,0,-999,0,0.00
2013-2-11,62,42,28,-100,-100,-100,0,0,100,0.00,40.00,0,-999,0,0.00
2013-2-12,61,44,32,-100,-100,-100,0,0,100,0.00,40.00,0,-999,0,0.00
2013-2-13,62,47,33,-100,-100,-100,0,0,100,0.00,40.00,0,-999,0,0.00
2013-2-14,65,49,33,-100,-100,-100,0,0,100,0.00,40.00,0,-999,0,0.00
2013-2-15,71,51,35,-100,-100,-100,0,0,100,0.00,40.00,0,-999,0,0.00
2013-2-16,68,51,39,-100,-100,-100,0,0,100,0.00,40.00,0,-999,0,0.00
2013-2-17,65,48,35,-100,-100,-100,0,0,100,0.00,40.00,0,-999,0,0.00
2013-2-18,59,45,35,-100,-100,-100,0,0,100,0.00,40.00,0,-999,0,0.00
2013-2-19,45,40,35,-100,-100,-100,0,0,100,0.00,40.00,0,-999,0,0.01
2013-2-20,59,42,27,-100,-100,-100,0,0,100,0.00,40.00,0,-999,0,0.01
2013-2-21,60,44,32,-100,-100,-100,0,0,100,0.00,40.00,0,-999,0,0.00
2013-2-22,62,46,30,-100,-100,-100,0,0,100,0.00,40.00,0,-999,0,0.00
2013-2-23,58,48,39,-100,-100,-100,0,0,100,0.00,40.00,0,-999,0,0.00
2013-2-24,63,49,37,-100,-100,-100,0,0,100,0.00,40.00,0,-999,0,0.00
2013-2-25,62,48,35,-100,-100,-100,0,0,100,0.00,40.00,0,-999,0,0.00
2013-2-26,64,48,33,-100,-100,-100,0,0,100,0.00,40.00,0,-999,0,0.00
2013-2-27,68,48,31,-100,-100,-100,0,0,100,0.00,40.00,0,-999,0,0.00
2013-2-28,71,55,38,-100,-100,-100,0,0,100,0.00,40.00,0,-999,0,0.00